sensor_id;sensor_type;location;lat;lon;timestamp;P1;durP1;ratioP1;P2;durP2;ratioP2
17488;SDS011;8861;52.644;4.734;2023-05-10T00:01:45;22.23;;;13.07;;
17488;SDS011;8861;52.644;4.734;2023-05-10T00:04:12;23.40;;;13.57;;
17488;SDS011;8861;52.644;4.734;2023-05-10T00:06:39;22.20;;;12.70;;
17488;SDS011;8861;52.644;4.734;2023-05-10T00:09:06;18.50;;;11.10;;
17488;SDS011;8861;52.644;4.734;2023-05-10T00:11:33;19.90;;;12.00;;
17488;SDS011;8861;52.644;4.734;2023-05-10T00:14:00;15.30;;;10.63;;
17488;SDS011;8861;52.644;4.734;2023-05-10T00:16:28;20.03;;;10.83;;
17488;SDS011;8861;52.644;4.734;2023-05-10T00:18:55;18.50;;;11.17;;
17488;SDS011;8861;52.644;4.734;2023-05-10T00:21:22;19.40;;;11.23;;
17488;SDS011;8861;52.644;4.734;2023-05-10T00:23:49;14.93;;;9.73;;
17488;SDS011;8861;52.644;4.734;2023-05-10T00:26:16;13.77;;;9.00;;
17488;SDS011;8861;52.644;4.734;2023-05-10T00:28:42;13.23;;;8.57;;
17488;SDS011;8861;52.644;4.734;2023-05-10T00:31:09;10.73;;;7.43;;
17488;SDS011;8861;52.644;4.734;2023-05-10T00:33:38;12.87;;;7.87;;
17488;SDS011;8861;52.644;4.734;2023-05-10T00:36:05;12.13;;;8.23;;
17488;SDS011;8861;52.644;4.734;2023-05-10T00:38:33;17.73;;;9.90;;
17488;SDS011;8861;52.644;4.734;2023-05-10T00:41:00;13.97;;;8.57;;
17488;SDS011;8861;52.644;4.734;2023-05-10T00:43:27;18.77;;;10.73;;
17488;SDS011;8861;52.644;4.734;2023-05-10T00:45:54;20.27;;;10.37;;
17488;SDS011;8861;52.644;4.734;2023-05-10T00:48:21;18.47;;;10.63;;
17488;SDS011;8861;52.644;4.734;2023-05-10T00:50:50;17.00;;;9.80;;
17488;SDS011;8861;52.644;4.734;2023-05-10T00:53:17;14.57;;;8.90;;
17488;SDS011;8861;52.644;4.734;2023-05-10T00:55:44;18.47;;;10.00;;
17488;SDS011;8861;52.644;4.734;2023-05-10T00:58:11;23.80;;;11.83;;
17488;SDS011;8861;52.644;4.734;2023-05-10T01:00:39;24.90;;;11.67;;
17488;SDS011;8861;52.644;4.734;2023-05-10T01:03:09;19.97;;;10.57;;
17488;SDS011;8861;52.644;4.734;2023-05-10T01:05:36;21.73;;;11.40;;
17488;SDS011;8861;52.644;4.734;2023-05-10T01:08:05;18.27;;;10.70;;
17488;SDS011;8861;52.644;4.734;2023-05-10T01:10:33;15.37;;;10.67;;
17488;SDS011;8861;52.644;4.734;2023-05-10T01:13:00;16.97;;;10.63;;
17488;SDS011;8861;52.644;4.734;2023-05-10T01:15:28;16.03;;;11.50;;
17488;SDS011;8861;52.644;4.734;2023-05-10T01:17:56;15.50;;;10.20;;
17488;SDS011;8861;52.644;4.734;2023-05-10T01:20:23;16.10;;;10.30;;
17488;SDS011;8861;52.644;4.734;2023-05-10T01:23:03;15.00;;;9.83;;
17488;SDS011;8861;52.644;4.734;2023-05-10T01:25:48;16.03;;;9.67;;
17488;SDS011;8861;52.644;4.734;2023-05-10T01:28:41;14.50;;;8.77;;
17488;SDS011;8861;52.644;4.734;2023-05-10T01:31:30;19.70;;;10.10;;
17488;SDS011;8861;52.644;4.734;2023-05-10T01:34:09;18.70;;;9.50;;
17488;SDS011;8861;52.644;4.734;2023-05-10T01:36:42;20.20;;;9.83;;
17488;SDS011;8861;52.644;4.734;2023-05-10T01:39:15;15.37;;;8.27;;
17488;SDS011;8861;52.644;4.734;2023-05-10T01:41:47;16.57;;;9.00;;
17488;SDS011;8861;52.644;4.734;2023-05-10T01:44:20;15.23;;;8.00;;
17488;SDS011;8861;52.644;4.734;2023-05-10T01:46:57;15.83;;;8.43;;
17488;SDS011;8861;52.644;4.734;2023-05-10T01:49:33;12.30;;;7.23;;
17488;SDS011;8861;52.644;4.734;2023-05-10T01:52:06;13.67;;;7.60;;
17488;SDS011;8861;52.644;4.734;2023-05-10T01:54:37;14.27;;;7.40;;
17488;SDS011;8861;52.644;4.734;2023-05-10T01:57:07;14.47;;;7.10;;
17488;SDS011;8861;52.644;4.734;2023-05-10T01:59:37;11.43;;;6.20;;
17488;SDS011;8861;52.644;4.734;2023-05-10T02:02:06;14.90;;;7.07;;
17488;SDS011;8861;52.644;4.734;2023-05-10T02:04:38;11.30;;;6.33;;
17488;SDS011;8861;52.644;4.734;2023-05-10T02:07:06;13.13;;;7.23;;
17488;SDS011;8861;52.644;4.734;2023-05-10T02:09:35;11.07;;;6.00;;
17488;SDS011;8861;52.644;4.734;2023-05-10T02:12:04;12.97;;;6.50;;
17488;SDS011;8861;52.644;4.734;2023-05-10T02:14:35;11.97;;;6.13;;
17488;SDS011;8861;52.644;4.734;2023-05-10T02:17:03;10.63;;;6.03;;
17488;SDS011;8861;52.644;4.734;2023-05-10T02:19:32;8.97;;;4.73;;
17488;SDS011;8861;52.644;4.734;2023-05-10T02:22:01;9.37;;;5.07;;
17488;SDS011;8861;52.644;4.734;2023-05-10T02:24:29;14.17;;;6.10;;
17488;SDS011;8861;52.644;4.734;2023-05-10T02:26:58;10.63;;;5.53;;
17488;SDS011;8861;52.644;4.734;2023-05-10T02:29:26;8.40;;;4.70;;
17488;SDS011;8861;52.644;4.734;2023-05-10T02:31:54;7.30;;;4.40;;
17488;SDS011;8861;52.644;4.734;2023-05-10T02:34:23;8.33;;;5.10;;
17488;SDS011;8861;52.644;4.734;2023-05-10T02:36:53;9.40;;;5.27;;
17488;SDS011;8861;52.644;4.734;2023-05-10T02:39:23;10.93;;;6.17;;
17488;SDS011;8861;52.644;4.734;2023-05-10T02:41:53;10.33;;;5.90;;
17488;SDS011;8861;52.644;4.734;2023-05-10T02:44:21;8.37;;;5.47;;
17488;SDS011;8861;52.644;4.734;2023-05-10T02:46:49;12.53;;;6.57;;
17488;SDS011;8861;52.644;4.734;2023-05-10T02:49:17;11.07;;;6.37;;
17488;SDS011;8861;52.644;4.734;2023-05-10T02:51:47;13.97;;;6.90;;
17488;SDS011;8861;52.644;4.734;2023-05-10T02:54:18;11.30;;;6.67;;
17488;SDS011;8861;52.644;4.734;2023-05-10T02:56:49;10.97;;;6.73;;
17488;SDS011;8861;52.644;4.734;2023-05-10T02:59:19;13.47;;;7.23;;
17488;SDS011;8861;52.644;4.734;2023-05-10T03:01:46;11.27;;;6.67;;
17488;SDS011;8861;52.644;4.734;2023-05-10T03:04:13;12.83;;;7.13;;
17488;SDS011;8861;52.644;4.734;2023-05-10T03:06:41;12.20;;;6.87;;
17488;SDS011;8861;52.644;4.734;2023-05-10T03:09:08;13.43;;;6.90;;
17488;SDS011;8861;52.644;4.734;2023-05-10T03:11:39;11.90;;;6.97;;
17488;SDS011;8861;52.644;4.734;2023-05-10T03:14:25;10.33;;;5.97;;
17488;SDS011;8861;52.644;4.734;2023-05-10T03:17:06;10.83;;;6.03;;
17488;SDS011;8861;52.644;4.734;2023-05-10T03:19:43;12.03;;;6.73;;
17488;SDS011;8861;52.644;4.734;2023-05-10T03:22:16;12.00;;;6.67;;
17488;SDS011;8861;52.644;4.734;2023-05-10T03:24:51;15.87;;;7.80;;
17488;SDS011;8861;52.644;4.734;2023-05-10T03:27:21;15.50;;;7.93;;
17488;SDS011;8861;52.644;4.734;2023-05-10T03:29:52;17.23;;;8.73;;
17488;SDS011;8861;52.644;4.734;2023-05-10T03:32:21;14.57;;;7.87;;
17488;SDS011;8861;52.644;4.734;2023-05-10T03:34:48;13.03;;;7.50;;
17488;SDS011;8861;52.644;4.734;2023-05-10T03:37:15;15.33;;;8.40;;
17488;SDS011;8861;52.644;4.734;2023-05-10T03:39:42;14.17;;;7.97;;
17488;SDS011;8861;52.644;4.734;2023-05-10T03:42:09;17.97;;;8.77;;
17488;SDS011;8861;52.644;4.734;2023-05-10T03:44:37;16.80;;;8.57;;
17488;SDS011;8861;52.644;4.734;2023-05-10T03:47:05;14.80;;;8.20;;
17488;SDS011;8861;52.644;4.734;2023-05-10T03:49:32;14.50;;;8.30;;
17488;SDS011;8861;52.644;4.734;2023-05-10T03:51:59;12.37;;;7.40;;
17488;SDS011;8861;52.644;4.734;2023-05-10T03:54:26;12.43;;;7.63;;
17488;SDS011;8861;52.644;4.734;2023-05-10T03:56:53;14.67;;;8.17;;
17488;SDS011;8861;52.644;4.734;2023-05-10T03:59:20;13.00;;;8.00;;
17488;SDS011;8861;52.644;4.734;2023-05-10T04:01:47;12.73;;;8.00;;
17488;SDS011;8861;52.644;4.734;2023-05-10T04:04:15;12.60;;;8.23;;
17488;SDS011;8861;52.644;4.734;2023-05-10T04:06:43;15.10;;;9.17;;
17488;SDS011;8861;52.644;4.734;2023-05-10T04:09:10;11.47;;;8.47;;
17488;SDS011;8861;52.644;4.734;2023-05-10T04:11:37;13.27;;;8.50;;
17488;SDS011;8861;52.644;4.734;2023-05-10T04:14:04;12.00;;;7.73;;
17488;SDS011;8861;52.644;4.734;2023-05-10T04:16:31;10.50;;;7.40;;
17488;SDS011;8861;52.644;4.734;2023-05-10T04:18:58;12.03;;;8.03;;
17488;SDS011;8861;52.644;4.734;2023-05-10T04:21:26;11.37;;;7.10;;
17488;SDS011;8861;52.644;4.734;2023-05-10T04:23:53;12.37;;;8.23;;
17488;SDS011;8861;52.644;4.734;2023-05-10T04:26:20;19.70;;;12.00;;
17488;SDS011;8861;52.644;4.734;2023-05-10T04:28:47;18.20;;;11.93;;
17488;SDS011;8861;52.644;4.734;2023-05-10T04:31:14;18.97;;;11.63;;
17488;SDS011;8861;52.644;4.734;2023-05-10T04:33:41;14.73;;;10.23;;
17488;SDS011;8861;52.644;4.734;2023-05-10T04:36:08;13.83;;;9.73;;
17488;SDS011;8861;52.644;4.734;2023-05-10T04:38:36;13.73;;;9.73;;
17488;SDS011;8861;52.644;4.734;2023-05-10T04:41:03;13.30;;;9.33;;
17488;SDS011;8861;52.644;4.734;2023-05-10T04:43:31;14.67;;;10.30;;
17488;SDS011;8861;52.644;4.734;2023-05-10T04:45:58;15.17;;;10.37;;
17488;SDS011;8861;52.644;4.734;2023-05-10T04:48:25;16.80;;;11.27;;
17488;SDS011;8861;52.644;4.734;2023-05-10T04:50:52;14.63;;;10.30;;
17488;SDS011;8861;52.644;4.734;2023-05-10T04:53:19;17.43;;;11.40;;
17488;SDS011;8861;52.644;4.734;2023-05-10T04:55:47;20.03;;;13.63;;
17488;SDS011;8861;52.644;4.734;2023-05-10T04:58:14;21.00;;;14.53;;
17488;SDS011;8861;52.644;4.734;2023-05-10T05:00:41;19.50;;;13.73;;
17488;SDS011;8861;52.644;4.734;2023-05-10T05:03:09;17.30;;;12.37;;
17488;SDS011;8861;52.644;4.734;2023-05-10T05:05:36;15.47;;;11.03;;
17488;SDS011;8861;52.644;4.734;2023-05-10T05:08:03;13.90;;;10.23;;
17488;SDS011;8861;52.644;4.734;2023-05-10T05:10:30;13.10;;;10.20;;
17488;SDS011;8861;52.644;4.734;2023-05-10T05:12:58;11.37;;;8.70;;
17488;SDS011;8861;52.644;4.734;2023-05-10T05:15:25;11.20;;;8.53;;
17488;SDS011;8861;52.644;4.734;2023-05-10T05:17:52;13.43;;;10.10;;
17488;SDS011;8861;52.644;4.734;2023-05-10T05:20:19;12.43;;;9.73;;
17488;SDS011;8861;52.644;4.734;2023-05-10T05:22:46;11.73;;;9.13;;
17488;SDS011;8861;52.644;4.734;2023-05-10T05:25:13;10.10;;;7.93;;
17488;SDS011;8861;52.644;4.734;2023-05-10T05:27:40;11.07;;;8.67;;
17488;SDS011;8861;52.644;4.734;2023-05-10T05:30:09;9.50;;;7.80;;
17488;SDS011;8861;52.644;4.734;2023-05-10T05:32:36;10.00;;;7.70;;
17488;SDS011;8861;52.644;4.734;2023-05-10T05:35:03;10.00;;;7.83;;
17488;SDS011;8861;52.644;4.734;2023-05-10T05:37:31;13.60;;;10.00;;
17488;SDS011;8861;52.644;4.734;2023-05-10T05:39:58;10.50;;;8.33;;
17488;SDS011;8861;52.644;4.734;2023-05-10T05:42:26;13.97;;;10.23;;
17488;SDS011;8861;52.644;4.734;2023-05-10T05:44:53;15.03;;;10.97;;
17488;SDS011;8861;52.644;4.734;2023-05-10T05:47:22;15.47;;;10.83;;
17488;SDS011;8861;52.644;4.734;2023-05-10T05:49:49;18.80;;;13.53;;
17488;SDS011;8861;52.644;4.734;2023-05-10T05:52:15;20.23;;;13.87;;
17488;SDS011;8861;52.644;4.734;2023-05-10T05:54:42;17.50;;;12.80;;
17488;SDS011;8861;52.644;4.734;2023-05-10T05:57:09;20.53;;;13.83;;
17488;SDS011;8861;52.644;4.734;2023-05-10T05:59:36;22.97;;;15.03;;
17488;SDS011;8861;52.644;4.734;2023-05-10T06:02:06;19.90;;;13.03;;
17488;SDS011;8861;52.644;4.734;2023-05-10T06:04:35;17.47;;;11.67;;
17488;SDS011;8861;52.644;4.734;2023-05-10T06:07:02;15.77;;;10.43;;
17488;SDS011;8861;52.644;4.734;2023-05-10T06:09:29;13.10;;;9.77;;
17488;SDS011;8861;52.644;4.734;2023-05-10T06:11:55;13.83;;;10.13;;
17488;SDS011;8861;52.644;4.734;2023-05-10T06:14:22;15.10;;;10.60;;
17488;SDS011;8861;52.644;4.734;2023-05-10T06:16:49;18.93;;;12.80;;
17488;SDS011;8861;52.644;4.734;2023-05-10T06:19:16;17.13;;;11.53;;
17488;SDS011;8861;52.644;4.734;2023-05-10T06:21:45;19.90;;;12.87;;
17488;SDS011;8861;52.644;4.734;2023-05-10T06:24:12;19.73;;;12.43;;
17488;SDS011;8861;52.644;4.734;2023-05-10T06:26:38;18.03;;;12.03;;
17488;SDS011;8861;52.644;4.734;2023-05-10T06:29:05;14.93;;;10.80;;
17488;SDS011;8861;52.644;4.734;2023-05-10T06:31:32;20.03;;;13.67;;
17488;SDS011;8861;52.644;4.734;2023-05-10T06:33:59;15.97;;;11.67;;
17488;SDS011;8861;52.644;4.734;2023-05-10T06:36:26;15.30;;;11.17;;
17488;SDS011;8861;52.644;4.734;2023-05-10T06:38:54;16.03;;;11.03;;
17488;SDS011;8861;52.644;4.734;2023-05-10T06:41:21;22.40;;;13.77;;
17488;SDS011;8861;52.644;4.734;2023-05-10T06:43:48;20.97;;;13.93;;
17488;SDS011;8861;52.644;4.734;2023-05-10T06:46:15;23.23;;;14.80;;
17488;SDS011;8861;52.644;4.734;2023-05-10T06:48:42;19.43;;;12.90;;
17488;SDS011;8861;52.644;4.734;2023-05-10T06:51:09;20.07;;;13.07;;
17488;SDS011;8861;52.644;4.734;2023-05-10T06:53:36;17.93;;;12.20;;
17488;SDS011;8861;52.644;4.734;2023-05-10T06:56:05;17.83;;;13.00;;
17488;SDS011;8861;52.644;4.734;2023-05-10T06:58:33;20.20;;;13.50;;
17488;SDS011;8861;52.644;4.734;2023-05-10T07:01:03;21.67;;;14.00;;
17488;SDS011;8861;52.644;4.734;2023-05-10T07:03:30;17.70;;;12.50;;
17488;SDS011;8861;52.644;4.734;2023-05-10T07:05:59;16.63;;;12.17;;
17488;SDS011;8861;52.644;4.734;2023-05-10T07:08:28;15.40;;;11.10;;
17488;SDS011;8861;52.644;4.734;2023-05-10T07:10:58;15.53;;;10.90;;
17488;SDS011;8861;52.644;4.734;2023-05-10T07:13:27;15.37;;;10.90;;
17488;SDS011;8861;52.644;4.734;2023-05-10T07:15:54;17.50;;;12.00;;
17488;SDS011;8861;52.644;4.734;2023-05-10T07:18:21;17.57;;;12.10;;
17488;SDS011;8861;52.644;4.734;2023-05-10T07:20:48;17.73;;;12.60;;
17488;SDS011;8861;52.644;4.734;2023-05-10T07:23:15;19.20;;;13.47;;
17488;SDS011;8861;52.644;4.734;2023-05-10T07:25:44;15.30;;;10.87;;
17488;SDS011;8861;52.644;4.734;2023-05-10T07:28:11;19.17;;;13.53;;
17488;SDS011;8861;52.644;4.734;2023-05-10T07:30:40;16.53;;;12.10;;
17488;SDS011;8861;52.644;4.734;2023-05-10T07:33:07;15.17;;;11.20;;
17488;SDS011;8861;52.644;4.734;2023-05-10T07:35:35;16.27;;;12.17;;
17488;SDS011;8861;52.644;4.734;2023-05-10T07:38:02;17.77;;;12.27;;
17488;SDS011;8861;52.644;4.734;2023-05-10T07:40:29;20.37;;;14.00;;
17488;SDS011;8861;52.644;4.734;2023-05-10T07:42:56;18.63;;;12.93;;
17488;SDS011;8861;52.644;4.734;2023-05-10T07:45:23;15.83;;;11.63;;
17488;SDS011;8861;52.644;4.734;2023-05-10T07:47:51;15.47;;;10.70;;
17488;SDS011;8861;52.644;4.734;2023-05-10T07:50:18;12.73;;;10.10;;
17488;SDS011;8861;52.644;4.734;2023-05-10T07:52:46;16.43;;;11.97;;
17488;SDS011;8861;52.644;4.734;2023-05-10T07:55:13;13.67;;;10.47;;
17488;SDS011;8861;52.644;4.734;2023-05-10T07:57:41;17.10;;;11.93;;
17488;SDS011;8861;52.644;4.734;2023-05-10T08:00:08;16.93;;;11.70;;
17488;SDS011;8861;52.644;4.734;2023-05-10T08:02:38;16.50;;;11.50;;
17488;SDS011;8861;52.644;4.734;2023-05-10T08:05:07;16.13;;;10.77;;
17488;SDS011;8861;52.644;4.734;2023-05-10T08:07:34;14.47;;;10.63;;
17488;SDS011;8861;52.644;4.734;2023-05-10T08:10:01;11.00;;;9.13;;
17488;SDS011;8861;52.644;4.734;2023-05-10T08:12:28;12.67;;;9.77;;
17488;SDS011;8861;52.644;4.734;2023-05-10T08:14:55;12.93;;;9.27;;
17488;SDS011;8861;52.644;4.734;2023-05-10T08:17:22;13.63;;;10.33;;
17488;SDS011;8861;52.644;4.734;2023-05-10T08:19:49;12.33;;;9.70;;
17488;SDS011;8861;52.644;4.734;2023-05-10T08:22:18;10.77;;;8.80;;
17488;SDS011;8861;52.644;4.734;2023-05-10T08:24:45;16.33;;;11.13;;
17488;SDS011;8861;52.644;4.734;2023-05-10T08:27:11;16.87;;;11.60;;
17488;SDS011;8861;52.644;4.734;2023-05-10T08:29:38;15.37;;;11.17;;
17488;SDS011;8861;52.644;4.734;2023-05-10T08:32:05;14.57;;;10.50;;
17488;SDS011;8861;52.644;4.734;2023-05-10T08:34:32;11.67;;;9.60;;
17488;SDS011;8861;52.644;4.734;2023-05-10T08:36:59;14.37;;;10.63;;
17488;SDS011;8861;52.644;4.734;2023-05-10T08:39:27;16.63;;;11.67;;
17488;SDS011;8861;52.644;4.734;2023-05-10T08:41:54;19.90;;;13.27;;
17488;SDS011;8861;52.644;4.734;2023-05-10T08:44:27;18.67;;;12.67;;
17488;SDS011;8861;52.644;4.734;2023-05-10T08:46:56;20.27;;;13.27;;
17488;SDS011;8861;52.644;4.734;2023-05-10T08:49:25;19.63;;;12.73;;
17488;SDS011;8861;52.644;4.734;2023-05-10T08:51:57;20.47;;;13.80;;
17488;SDS011;8861;52.644;4.734;2023-05-10T08:54:25;22.20;;;14.43;;
17488;SDS011;8861;52.644;4.734;2023-05-10T08:56:55;20.87;;;13.53;;
17488;SDS011;8861;52.644;4.734;2023-05-10T08:59:22;15.80;;;11.27;;
17488;SDS011;8861;52.644;4.734;2023-05-10T09:01:49;24.97;;;15.27;;
17488;SDS011;8861;52.644;4.734;2023-05-10T09:04:18;23.50;;;14.73;;
17488;SDS011;8861;52.644;4.734;2023-05-10T09:06:46;23.13;;;13.63;;
17488;SDS011;8861;52.644;4.734;2023-05-10T09:09:13;22.50;;;14.37;;
17488;SDS011;8861;52.644;4.734;2023-05-10T09:11:43;18.60;;;12.73;;
17488;SDS011;8861;52.644;4.734;2023-05-10T09:14:10;20.93;;;13.43;;
17488;SDS011;8861;52.644;4.734;2023-05-10T09:16:39;23.37;;;13.57;;
17488;SDS011;8861;52.644;4.734;2023-05-10T09:19:07;18.20;;;12.43;;
17488;SDS011;8861;52.644;4.734;2023-05-10T09:21:35;20.67;;;13.57;;
17488;SDS011;8861;52.644;4.734;2023-05-10T09:24:03;21.93;;;14.33;;
17488;SDS011;8861;52.644;4.734;2023-05-10T09:26:30;20.37;;;12.83;;
17488;SDS011;8861;52.644;4.734;2023-05-10T09:28:59;21.13;;;13.37;;
17488;SDS011;8861;52.644;4.734;2023-05-10T09:34:11;20.57;;;13.10;;
17488;SDS011;8861;52.644;4.734;2023-05-10T09:36:52;22.17;;;14.37;;
17488;SDS011;8861;52.644;4.734;2023-05-10T09:39:20;21.37;;;13.67;;
17488;SDS011;8861;52.644;4.734;2023-05-10T09:41:47;21.20;;;13.40;;
17488;SDS011;8861;52.644;4.734;2023-05-10T09:44:17;20.50;;;12.40;;
17488;SDS011;8861;52.644;4.734;2023-05-10T09:46:49;27.23;;;16.20;;
17488;SDS011;8861;52.644;4.734;2023-05-10T09:49:17;26.10;;;15.20;;
17488;SDS011;8861;52.644;4.734;2023-05-10T09:51:45;23.27;;;14.90;;
17488;SDS011;8861;52.644;4.734;2023-05-10T09:54:12;22.40;;;13.67;;
17488;SDS011;8861;52.644;4.734;2023-05-10T09:56:40;23.70;;;14.43;;
17488;SDS011;8861;52.644;4.734;2023-05-10T09:59:09;25.10;;;15.53;;
17488;SDS011;8861;52.644;4.734;2023-05-10T10:01:38;24.90;;;15.53;;
17488;SDS011;8861;52.644;4.734;2023-05-10T10:04:06;20.30;;;13.63;;
17488;SDS011;8861;52.644;4.734;2023-05-10T10:06:36;23.73;;;15.03;;
17488;SDS011;8861;52.644;4.734;2023-05-10T10:09:04;21.07;;;13.90;;
17488;SDS011;8861;52.644;4.734;2023-05-10T10:11:33;18.90;;;12.60;;
17488;SDS011;8861;52.644;4.734;2023-05-10T10:14:01;23.63;;;14.50;;
17488;SDS011;8861;52.644;4.734;2023-05-10T10:16:28;21.10;;;13.67;;
17488;SDS011;8861;52.644;4.734;2023-05-10T10:18:57;20.07;;;13.47;;
17488;SDS011;8861;52.644;4.734;2023-05-10T10:21:24;20.10;;;13.27;;
17488;SDS011;8861;52.644;4.734;2023-05-10T10:23:52;22.43;;;14.60;;
17488;SDS011;8861;52.644;4.734;2023-05-10T10:26:21;26.57;;;15.43;;
17488;SDS011;8861;52.644;4.734;2023-05-10T10:28:49;25.00;;;15.03;;
17488;SDS011;8861;52.644;4.734;2023-05-10T10:31:25;20.63;;;13.13;;
17488;SDS011;8861;52.644;4.734;2023-05-10T10:34:01;19.10;;;13.27;;
17488;SDS011;8861;52.644;4.734;2023-05-10T10:36:33;17.30;;;12.10;;
17488;SDS011;8861;52.644;4.734;2023-05-10T10:39:08;17.27;;;12.30;;
17488;SDS011;8861;52.644;4.734;2023-05-10T10:41:36;16.20;;;12.40;;
17488;SDS011;8861;52.644;4.734;2023-05-10T10:50:04;11.30;;;9.43;;
17488;SDS011;8861;52.644;4.734;2023-05-10T10:52:32;11.07;;;9.00;;
17488;SDS011;8861;52.644;4.734;2023-05-10T10:55:01;12.97;;;10.07;;
17488;SDS011;8861;52.644;4.734;2023-05-10T10:57:42;10.97;;;9.17;;
17488;SDS011;8861;52.644;4.734;2023-05-10T11:00:20;11.37;;;9.10;;
17488;SDS011;8861;52.644;4.734;2023-05-10T11:02:52;10.93;;;9.33;;
17488;SDS011;8861;52.644;4.734;2023-05-10T11:08:15;10.43;;;8.63;;
17488;SDS011;8861;52.644;4.734;2023-05-10T11:10:51;10.23;;;8.70;;
17488;SDS011;8861;52.644;4.734;2023-05-10T11:13:29;10.50;;;8.43;;
17488;SDS011;8861;52.644;4.734;2023-05-10T11:15:56;10.70;;;8.90;;
17488;SDS011;8861;52.644;4.734;2023-05-10T11:18:25;9.27;;;7.90;;
17488;SDS011;8861;52.644;4.734;2023-05-10T11:20:56;7.90;;;7.10;;
17488;SDS011;8861;52.644;4.734;2023-05-10T11:23:29;11.60;;;8.23;;
17488;SDS011;8861;52.644;4.734;2023-05-10T11:25:57;9.00;;;7.60;;
17488;SDS011;8861;52.644;4.734;2023-05-10T11:28:24;8.43;;;7.23;;
17488;SDS011;8861;52.644;4.734;2023-05-10T11:30:52;8.73;;;7.27;;
17488;SDS011;8861;52.644;4.734;2023-05-10T11:33:20;7.53;;;6.73;;
17488;SDS011;8861;52.644;4.734;2023-05-10T11:35:47;8.53;;;7.10;;
17488;SDS011;8861;52.644;4.734;2023-05-10T11:38:15;7.87;;;6.53;;
17488;SDS011;8861;52.644;4.734;2023-05-10T11:40:42;9.23;;;7.60;;
17488;SDS011;8861;52.644;4.734;2023-05-10T11:43:09;9.30;;;6.70;;
17488;SDS011;8861;52.644;4.734;2023-05-10T11:45:37;7.07;;;6.37;;
17488;SDS011;8861;52.644;4.734;2023-05-10T11:48:06;8.07;;;7.23;;
17488;SDS011;8861;52.644;4.734;2023-05-10T11:50:33;7.80;;;6.97;;
17488;SDS011;8861;52.644;4.734;2023-05-10T11:53:00;8.73;;;6.97;;
17488;SDS011;8861;52.644;4.734;2023-05-10T11:55:28;9.90;;;7.80;;
17488;SDS011;8861;52.644;4.734;2023-05-10T11:58:00;8.93;;;7.40;;
17488;SDS011;8861;52.644;4.734;2023-05-10T12:00:27;8.33;;;7.53;;
17488;SDS011;8861;52.644;4.734;2023-05-10T12:02:55;8.67;;;7.50;;
17488;SDS011;8861;52.644;4.734;2023-05-10T12:05:23;8.10;;;7.23;;
17488;SDS011;8861;52.644;4.734;2023-05-10T12:07:50;8.43;;;7.03;;
17488;SDS011;8861;52.644;4.734;2023-05-10T12:10:17;7.97;;;6.70;;
17488;SDS011;8861;52.644;4.734;2023-05-10T12:12:53;7.40;;;6.43;;
17488;SDS011;8861;52.644;4.734;2023-05-10T12:15:21;6.93;;;6.07;;
17488;SDS011;8861;52.644;4.734;2023-05-10T12:17:48;7.53;;;6.80;;
17488;SDS011;8861;52.644;4.734;2023-05-10T12:20:16;7.87;;;7.07;;
17488;SDS011;8861;52.644;4.734;2023-05-10T12:22:49;7.10;;;6.40;;
17488;SDS011;8861;52.644;4.734;2023-05-10T12:25:17;8.23;;;7.43;;
17488;SDS011;8861;52.644;4.734;2023-05-10T12:27:48;7.50;;;6.73;;
17488;SDS011;8861;52.644;4.734;2023-05-10T12:30:21;7.47;;;6.77;;
17488;SDS011;8861;52.644;4.734;2023-05-10T12:32:49;7.97;;;7.13;;
17488;SDS011;8861;52.644;4.734;2023-05-10T12:35:16;9.30;;;8.30;;
17488;SDS011;8861;52.644;4.734;2023-05-10T12:37:46;9.00;;;7.63;;
17488;SDS011;8861;52.644;4.734;2023-05-10T12:40:14;10.30;;;8.57;;
17488;SDS011;8861;52.644;4.734;2023-05-10T12:42:41;8.53;;;7.63;;
17488;SDS011;8861;52.644;4.734;2023-05-10T12:45:10;7.70;;;6.77;;
17488;SDS011;8861;52.644;4.734;2023-05-10T12:47:38;6.23;;;5.63;;
17488;SDS011;8861;52.644;4.734;2023-05-10T12:50:06;6.20;;;5.60;;
17488;SDS011;8861;52.644;4.734;2023-05-10T12:52:33;6.07;;;5.30;;
17488;SDS011;8861;52.644;4.734;2023-05-10T12:55:00;5.80;;;5.20;;
17488;SDS011;8861;52.644;4.734;2023-05-10T12:57:28;6.73;;;5.73;;
17488;SDS011;8861;52.644;4.734;2023-05-10T12:59:55;7.47;;;5.80;;
17488;SDS011;8861;52.644;4.734;2023-05-10T13:02:22;6.57;;;5.17;;
17488;SDS011;8861;52.644;4.734;2023-05-10T13:04:51;5.87;;;5.27;;
17488;SDS011;8861;52.644;4.734;2023-05-10T13:07:17;5.03;;;4.53;;
17488;SDS011;8861;52.644;4.734;2023-05-10T13:09:45;4.80;;;4.40;;
17488;SDS011;8861;52.644;4.734;2023-05-10T13:12:11;5.47;;;4.97;;
17488;SDS011;8861;52.644;4.734;2023-05-10T13:14:38;5.67;;;4.60;;
17488;SDS011;8861;52.644;4.734;2023-05-10T13:17:06;5.07;;;4.57;;
17488;SDS011;8861;52.644;4.734;2023-05-10T13:19:33;5.40;;;4.90;;
17488;SDS011;8861;52.644;4.734;2023-05-10T13:22:02;5.77;;;5.27;;
17488;SDS011;8861;52.644;4.734;2023-05-10T13:24:29;5.30;;;4.70;;
17488;SDS011;8861;52.644;4.734;2023-05-10T13:26:56;5.70;;;5.13;;
17488;SDS011;8861;52.644;4.734;2023-05-10T13:29:23;6.13;;;5.53;;
17488;SDS011;8861;52.644;4.734;2023-05-10T13:31:50;6.00;;;5.43;;
17488;SDS011;8861;52.644;4.734;2023-05-10T13:34:17;6.53;;;5.30;;
17488;SDS011;8861;52.644;4.734;2023-05-10T13:36:45;5.23;;;4.47;;
17488;SDS011;8861;52.644;4.734;2023-05-10T13:39:14;5.33;;;4.83;;
17488;SDS011;8861;52.644;4.734;2023-05-10T13:41:41;4.90;;;4.40;;
17488;SDS011;8861;52.644;4.734;2023-05-10T13:44:08;5.10;;;4.60;;
17488;SDS011;8861;52.644;4.734;2023-05-10T13:46:37;5.00;;;4.50;;
17488;SDS011;8861;52.644;4.734;2023-05-10T13:49:03;4.97;;;4.47;;
17488;SDS011;8861;52.644;4.734;2023-05-10T13:51:30;4.70;;;4.10;;
17488;SDS011;8861;52.644;4.734;2023-05-10T13:53:57;4.80;;;4.00;;
17488;SDS011;8861;52.644;4.734;2023-05-10T13:56:26;3.97;;;3.57;;
17488;SDS011;8861;52.644;4.734;2023-05-10T13:58:52;4.00;;;3.60;;
17488;SDS011;8861;52.644;4.734;2023-05-10T14:01:19;5.10;;;4.60;;
17488;SDS011;8861;52.644;4.734;2023-05-10T14:03:46;5.17;;;4.47;;
17488;SDS011;8861;52.644;4.734;2023-05-10T14:06:13;5.73;;;4.80;;
17488;SDS011;8861;52.644;4.734;2023-05-10T14:08:40;5.30;;;4.80;;
17488;SDS011;8861;52.644;4.734;2023-05-10T14:11:07;4.30;;;3.90;;
17488;SDS011;8861;52.644;4.734;2023-05-10T14:13:36;4.50;;;3.90;;
17488;SDS011;8861;52.644;4.734;2023-05-10T14:16:03;4.43;;;4.03;;
17488;SDS011;8861;52.644;4.734;2023-05-10T14:18:30;3.53;;;3.23;;
17488;SDS011;8861;52.644;4.734;2023-05-10T14:20:57;3.93;;;3.63;;
17488;SDS011;8861;52.644;4.734;2023-05-10T14:23:24;3.87;;;3.47;;
17488;SDS011;8861;52.644;4.734;2023-05-10T14:25:53;4.27;;;3.87;;
17488;SDS011;8861;52.644;4.734;2023-05-10T14:28:20;4.30;;;3.90;;
17488;SDS011;8861;52.644;4.734;2023-05-10T14:30:50;4.80;;;4.30;;
17488;SDS011;8861;52.644;4.734;2023-05-10T14:33:17;6.43;;;3.83;;
17488;SDS011;8861;52.644;4.734;2023-05-10T14:35:44;4.90;;;4.40;;
17488;SDS011;8861;52.644;4.734;2023-05-10T14:38:12;5.03;;;4.53;;
17488;SDS011;8861;52.644;4.734;2023-05-10T14:40:39;4.60;;;4.20;;
17488;SDS011;8861;52.644;4.734;2023-05-10T14:43:06;3.90;;;3.50;;
17488;SDS011;8861;52.644;4.734;2023-05-10T14:45:33;3.63;;;3.33;;
17488;SDS011;8861;52.644;4.734;2023-05-10T14:48:01;4.00;;;3.60;;
17488;SDS011;8861;52.644;4.734;2023-05-10T14:50:29;4.30;;;3.90;;
17488;SDS011;8861;52.644;4.734;2023-05-10T14:52:56;4.50;;;4.10;;
17488;SDS011;8861;52.644;4.734;2023-05-10T14:55:23;4.83;;;4.13;;
17488;SDS011;8861;52.644;4.734;2023-05-10T14:57:50;4.90;;;4.40;;
17488;SDS011;8861;52.644;4.734;2023-05-10T15:00:17;5.60;;;4.60;;
17488;SDS011;8861;52.644;4.734;2023-05-10T15:02:45;4.50;;;4.10;;
17488;SDS011;8861;52.644;4.734;2023-05-10T15:05:14;5.37;;;4.87;;